Aviation Digital Data Service (ADDS)

Output produced by METARs form (0651 UTC 25 July 2017)
found at http://aviationweather.gov/adds/metars/
 
KYNG 250537Z 2506/2606 33008KT P6SM SCT015 OVC028 
     TEMPO 2508/2512 BKN015 
     FM251200 33005KT P6SM BKN015 OVC028 
     FM251800 35006KT P6SM BKN035 
     FM252200 36007KT P6SM SCT040 
     FM260200 05004KT P6SM FEW250